Time;durP1;ratioP1;P1;durP2;ratioP2;P2;SDS_P1;SDS_P2;PMS_P1;PMS_P2;Temp;Humidity;BMP_temperature;BMP_pressure;BME280_temperature;BME280_humidity;BME280_pressure;Samples;Min_cycle;Max_cycle;Signal;HPM_P1;HPM_P2
2021/08/14 00:00:44;;;;;;;;;4.00;3.50;;;;;21.40;53.62;102148.59;4998893;28;45268;-77
2021/08/14 00:03:09;;;;;;;;;6.25;4.25;;;;;21.33;53.37;102145.41;4978718;28;47303;-79
2021/08/14 00:05:34;;;;;;;;;4.00;4.00;;;;;21.29;53.87;102157.19;4999059;28;45360;-79
2021/08/14 00:08:00;;;;;;;;;4.00;3.25;;;;;21.29;53.73;102144.69;4999355;28;45389;-83
2021/08/14 00:10:25;;;;;;;;;5.00;4.00;;;;;21.28;54.36;102156.38;4998974;28;45313;-80
2021/08/14 00:12:51;;;;;;;;;5.50;4.25;;;;;21.29;54.23;102155.41;4999473;28;45270;-79
2021/08/14 00:15:16;;;;;;;;;6.75;5.00;;;;;21.28;54.19;102153.69;4998416;28;45521;-78
2021/08/14 00:17:41;;;;;;;;;4.50;4.50;;;;;21.25;54.07;102143.16;4981946;28;45314;-78
2021/08/14 00:20:07;;;;;;;;;4.75;4.00;;;;;21.25;54.41;102153.84;4999665;28;45314;-77
2021/08/14 00:22:33;;;;;;;;;7.25;5.00;;;;;21.21;54.23;102146.97;4981469;28;46279;-78
2021/08/14 00:24:58;;;;;;;;;7.00;2.00;;;;;21.17;54.28;102140.03;4998760;28;45398;-78
2021/08/14 00:27:23;;;;;;;;;7.25;3.50;;;;;21.17;54.51;102145.38;4999098;28;45474;-78
2021/08/14 00:29:49;;;;;;;;;6.50;4.75;;;;;21.14;54.31;102147.28;4998846;28;45325;-79
2021/08/14 00:32:14;;;;;;;;;4.75;3.75;;;;;21.12;54.87;102132.28;4995989;28;45286;-79
2021/08/14 00:34:39;;;;;;;;;6.00;5.25;;;;;21.10;54.60;102134.19;4999084;28;45389;-80
2021/08/14 00:37:05;;;;;;;;;6.00;4.50;;;;;21.10;54.81;102134.19;4999019;28;45514;-80
2021/08/14 00:39:30;;;;;;;;;5.25;4.00;;;;;21.06;54.82;102138.00;4999626;28;45242;-80
2021/08/14 00:41:56;;;;;;;;;4.75;4.75;;;;;21.02;54.59;102134.63;4998633;28;45233;-80
2021/08/14 00:44:21;;;;;;;;;5.75;4.50;;;;;20.99;55.26;102140.94;4998276;28;45583;-79
2021/08/14 00:46:47;;;;;;;;;7.00;4.00;;;;;20.99;55.06;102134.78;5000558;28;45214;-79
2021/08/14 00:49:13;;;;;;;;;7.00;3.50;;;;;20.95;55.52;102142.09;5002940;28;45185;-78
2021/08/14 00:51:38;;;;;;;;;8.50;4.00;;;;;20.91;55.18;102136.03;5002083;28;45520;-77
2021/08/14 00:54:04;;;;;;;;;5.25;4.25;;;;;20.92;55.41;102140.44;5001961;28;45654;-77
2021/08/14 00:56:29;;;;;;;;;4.75;4.75;;;;;20.92;55.12;102145.78;5002552;28;45446;-79
2021/08/14 00:58:55;;;;;;;;;5.00;4.00;;;;;20.90;55.41;102145.00;5002511;28;45510;-79
2021/08/14 01:01:22;;;;;;;;;6.50;5.00;;;;;20.84;55.32;102142.66;5001599;28;45742;-88
2021/08/14 01:03:48;;;;;;;;;5.75;3.75;;;;;;;;5002017;28;46183;-89
2021/08/14 01:06:17;;;;;;;;;5.75;5.00;;;;;20.75;55.24;102140.50;5002402;28;45290;-84
2021/08/14 01:08:43;;;;;;;;;4.50;3.75;;;;;20.72;55.21;102140.69;5002701;28;45188;-88
2021/08/14 01:11:10;;;;;;;;;6.75;3.25;;;;;20.68;55.18;102137.31;5001640;28;45238;-90
2021/08/14 01:13:35;;;;;;;;;7.00;4.00;;;;;20.65;55.41;102138.31;5001846;28;45524;-87
2021/08/14 01:16:00;;;;;;;;;5.25;3.50;;;;;20.67;55.23;102139.09;4983731;28;45435;-88
2021/08/14 01:18:26;;;;;;;;;5.00;4.75;;;;;20.71;55.23;102137.16;5002536;28;45489;-80
2021/08/14 01:20:51;;;;;;;;;3.00;3.00;;;;;20.72;55.23;102135.34;5001310;28;45574;-79
2021/08/14 01:23:17;;;;;;;;;7.50;4.00;;;;;20.70;54.65;102138.06;5001268;28;45625;-78
2021/08/14 01:25:43;;;;;;;;;2.75;2.75;;;;;20.65;54.79;102132.97;5001939;28;45838;-79
2021/08/14 01:28:09;;;;;;;;;4.50;3.25;;;;;20.58;54.84;102124.44;5001926;28;45506;-79
2021/08/14 01:30:36;;;;;;;;;4.00;3.50;;;;;20.60;54.31;102128.81;5001212;28;45303;-79
2021/08/14 01:33:02;;;;;;;;;3.00;3.00;;;;;20.58;54.38;102129.78;5001217;28;45595;-78
2021/08/14 01:35:28;;;;;;;;;4.00;3.50;;;;;20.56;54.27;102130.81;5002078;28;45230;-78
2021/08/14 01:37:53;;;;;;;;;5.00;4.00;;;;;20.51;54.37;102124.84;5001863;28;45744;-78
2021/08/14 01:40:18;;;;;;;;;4.75;4.75;;;;;20.52;54.34;102121.25;4990657;28;45433;-79
2021/08/14 01:42:44;;;;;;;;;5.25;4.00;;;;;20.48;54.19;102119.66;5001275;28;46391;-79
2021/08/14 01:45:09;;;;;;;;;5.50;5.00;;;;;20.43;54.10;102114.56;4997606;28;45908;-79
2021/08/14 01:47:35;;;;;;;;;4.25;3.25;;;;;20.45;54.14;102120.69;4985439;28;45235;-79
2021/08/14 01:50:00;;;;;;;;;5.25;3.50;;;;;20.44;54.01;102117.19;5001684;28;45484;-79
2021/08/14 01:52:25;;;;;;;;;8.00;4.00;;;;;20.46;54.39;102114.41;5001211;28;46500;-79
2021/08/14 01:54:51;;;;;;;;;3.00;3.00;;;;;20.42;54.13;102116.38;5001298;28;45380;-77
2021/08/14 01:57:16;;;;;;;;;5.25;4.50;;;;;20.38;54.16;102111.28;5000800;28;45462;-77
2021/08/14 01:59:42;;;;;;;;;6.00;3.75;;;;;20.35;53.92;102113.19;5001084;28;45387;-76
2021/08/14 02:02:08;;;;;;;;;3.50;3.25;;;;;20.32;53.98;102117.84;4998433;28;46067;-76
2021/08/14 02:04:33;;;;;;;;;5.00;5.00;;;;;20.31;54.29;102119.63;4983796;28;45354;-76
2021/08/14 02:07:00;;;;;;;;;5.00;5.00;;;;;20.30;54.21;102122.38;5001545;28;45369;-76
2021/08/14 02:09:25;;;;;;;;;3.00;3.00;;;;;20.28;53.87;102116.25;5001359;28;45483;-76
2021/08/14 02:11:51;;;;;;;;;6.00;4.75;;;;;20.26;54.12;102115.47;4999662;28;46147;-76
2021/08/14 02:14:16;;;;;;;;;5.00;3.75;;;;;20.23;54.34;102114.69;4978054;28;45278;-85
2021/08/14 02:16:42;;;;;;;;;7.75;4.25;;;;;20.28;54.17;102114.44;5000473;28;45237;-77
2021/08/14 02:19:08;;;;;;;;;3.50;3.50;;;;;20.29;54.69;102109.97;5000975;28;45515;-80
2021/08/14 02:21:33;;;;;;;;;5.00;0.50;;;;;20.31;54.45;102110.75;5000766;28;45451;-80
2021/08/14 02:23:59;;;;;;;;;4.25;4.25;;;;;20.32;54.28;102107.16;5000314;28;45186;-79
2021/08/14 02:26:26;;;;;;;;;6.50;4.25;;;;;20.27;54.29;102104.72;5001610;28;45531;-82
2021/08/14 02:28:51;;;;;;;;;5.75;5.25;;;;;20.22;54.48;102099.59;5000606;28;45482;-81
2021/08/14 02:31:17;;;;;;;;;3.75;3.00;;;;;20.18;54.53;102103.41;4999694;28;46591;-84
2021/08/14 02:33:42;;;;;;;;;6.75;3.50;;;;;20.15;54.81;102106.22;5000377;28;45336;-86
2021/08/14 02:36:09;;;;;;;;;4.75;3.00;;;;;20.18;54.69;102106.06;5001366;28;45317;-85
2021/08/14 02:38:35;;;;;;;;;5.00;3.00;;;;;20.15;54.72;102095.53;5000349;28;45519;-84
2021/08/14 02:41:02;;;;;;;;;4.75;3.00;;;;;20.16;54.90;102096.41;4981948;28;48305;-78
2021/08/14 02:43:27;;;;;;;;;5.00;4.00;;;;;20.16;54.94;102099.06;5000665;28;45273;-78
2021/08/14 02:45:53;;;;;;;;;5.00;4.75;;;;;20.15;54.59;102098.22;4982980;28;45173;-78
2021/08/14 02:48:18;;;;;;;;;7.00;5.00;;;;;20.10;55.03;102093.09;4982795;28;46175;-80
2021/08/14 02:50:46;;;;;;;;;3.00;3.00;;;;;20.12;55.33;102087.72;4997857;28;46493;-80
2021/08/14 02:53:13;;;;;;;;;5.00;3.25;;;;;20.17;55.60;102085.69;5000808;28;45468;-81
2021/08/14 02:55:40;;;;;;;;;10.00;5.25;;;;;20.19;55.90;102091.78;5000784;28;45464;-81
2021/08/14 02:58:06;;;;;;;;;4.75;4.75;;;;;20.16;55.90;102083.06;5000088;28;45301;-81
2021/08/14 03:00:31;;;;;;;;;4.50;4.50;;;;;20.24;56.37;102084.41;4995170;28;45495;-81
2021/08/14 03:02:57;;;;;;;;;6.25;4.00;;;;;20.26;56.36;102080.78;4996750;28;45334;-81
2021/08/14 03:05:23;;;;;;;;;5.00;4.00;;;;;20.28;56.52;102084.22;5000790;28;45541;-81
2021/08/14 03:07:48;;;;;;;;;4.00;3.75;;;;;20.30;56.32;102082.31;4996532;28;45299;-81
2021/08/14 03:10:13;;;;;;;;;5.00;4.50;;;;;20.34;56.63;102078.56;4999484;28;46831;-79
2021/08/14 03:12:39;;;;;;;;;6.00;6.00;;;;;20.38;56.30;102074.78;5000522;28;45232;-80
2021/08/14 03:15:06;;;;;;;;;6.50;4.00;;;;;20.39;56.13;102078.31;4999874;28;45280;-78
2021/08/14 03:17:31;;;;;;;;;6.25;3.25;;;;;20.35;55.45;102082.94;4998779;28;45553;-78
2021/08/14 03:19:57;;;;;;;;;5.25;4.75;;;;;20.30;55.40;102072.50;4997599;28;45915;-78
2021/08/14 03:22:22;;;;;;;;;7.00;4.00;;;;;20.26;54.88;102067.41;4981768;28;45840;-78
2021/08/14 03:24:47;;;;;;;;;3.25;2.50;;;;;20.18;54.83;102066.03;4997666;28;45363;-81
2021/08/14 03:27:13;;;;;;;;;4.50;3.75;;;;;20.11;55.28;102060.16;4982151;28;45983;-85
2021/08/14 03:29:38;;;;;;;;;7.25;5.00;;;;;20.12;55.46;102066.38;4999011;28;45682;-77
2021/08/14 03:32:04;;;;;;;;;4.00;4.00;;;;;20.09;55.58;102063.81;5000083;28;45297;-80
2021/08/14 03:34:29;;;;;;;;;5.25;5.25;;;;;20.05;55.91;102068.44;5000473;28;45431;-80
2021/08/14 03:36:55;;;;;;;;;6.25;3.75;;;;;20.04;55.68;102071.19;4999399;28;45358;-82
2021/08/14 03:39:20;;;;;;;;;4.25;4.00;;;;;20.04;55.31;102063.19;4999811;28;45482;-81
2021/08/14 03:41:45;;;;;;;;;3.50;3.00;;;;;19.96;55.50;102059.13;4999716;28;45443;-84
2021/08/14 03:44:11;;;;;;;;;3.00;3.00;;;;;19.94;55.37;102066.34;4999581;28;45281;-82
2021/08/14 03:46:36;;;;;;;;;4.25;3.00;;;;;19.89;55.65;102071.06;4998615;28;45348;-82
2021/08/14 03:49:02;;;;;;;;;5.75;4.50;;;;;19.87;56.23;102062.28;4999527;28;46499;-82
2021/08/14 03:51:27;;;;;;;;;4.75;3.00;;;;;19.88;55.53;102056.84;4982096;28;45419;-88
2021/08/14 03:53:52;;;;;;;;;4.00;3.50;;;;;19.88;55.94;102059.53;4982419;28;45262;-86
2021/08/14 03:56:18;;;;;;;;;7.50;3.25;;;;;19.92;56.20;102065.56;4981279;28;47297;-84
2021/08/14 03:58:43;;;;;;;;;7.00;4.00;;;;;19.93;56.54;102066.44;4999616;28;45242;-81
2021/08/14 04:01:09;;;;;;;;;6.00;5.50;;;;;19.90;55.65;102059.47;4981714;28;46361;-79
2021/08/14 04:03:34;;;;;;;;;4.25;3.00;;;;;19.86;55.90;102065.88;4999436;28;45441;-79
2021/08/14 04:05:59;;;;;;;;;7.25;4.50;;;;;19.84;55.52;102049.09;4999000;28;45427;-83
2021/08/14 04:08:25;;;;;;;;;3.50;3.00;;;;;19.83;56.06;102055.38;4999339;28;45416;-82
2021/08/14 04:10:51;;;;;;;;;5.75;3.50;;;;;19.79;56.52;102042.19;4999662;28;45412;-84
2021/08/14 04:13:16;;;;;;;;;8.25;5.00;;;;;19.82;55.84;102053.66;4999082;28;45475;-86
2021/08/14 04:15:42;;;;;;;;;8.00;5.25;;;;;19.75;56.20;102051.31;4997681;28;45693;-82
2021/08/14 04:18:07;;;;;;;;;6.00;5.25;;;;;19.77;55.94;102054.75;4999215;28;46135;-83
2021/08/14 04:20:33;;;;;;;;;4.50;3.50;;;;;19.75;55.70;102050.44;4993337;28;45572;-86
2021/08/14 04:22:58;;;;;;;;;4.50;3.50;;;;;19.72;55.88;102051.47;5002141;28;45345;-80
2021/08/14 04:25:24;;;;;;;;;4.50;4.00;;;;;19.65;55.93;102039.38;5002029;28;45463;-79
2021/08/14 04:27:49;;;;;;;;;6.00;4.00;;;;;19.61;56.37;102035.13;4995351;28;45325;-80
2021/08/14 04:30:15;;;;;;;;;6.00;3.50;;;;;19.58;55.75;102043.31;4990760;28;45694;-80
2021/08/14 04:32:41;;;;;;;;;8.50;4.50;;;;;19.53;56.11;102038.19;4998303;28;45562;-80
2021/08/14 04:35:11;;;;;;;;;5.00;5.00;;;;;19.51;56.44;102038.25;5002906;28;45217;-79
2021/08/14 04:37:37;;;;;;;;;6.25;3.00;;;;;19.48;56.33;102038.44;5003072;28;45593;-79
2021/08/14 04:40:05;;;;;;;;;5.75;5.50;;;;;19.45;56.59;102028.78;5002410;28;45559;-79
2021/08/14 04:42:30;;;;;;;;;5.50;4.00;;;;;19.43;56.67;102033.31;5002909;28;45345;-79
2021/08/14 04:44:55;;;;;;;;;6.75;5.00;;;;;19.42;56.39;102017.41;4972907;28;45393;-79
2021/08/14 04:47:21;;;;;;;;;3.50;2.25;;;;;19.41;56.73;102031.69;5002516;28;46166;-79
2021/08/14 04:49:46;;;;;;;;;5.75;5.75;;;;;19.41;56.63;102023.69;5002624;28;45292;-79
2021/08/14 04:52:12;;;;;;;;;5.25;3.25;;;;;19.38;56.88;102019.38;4995781;28;45467;-78
2021/08/14 04:54:37;;;;;;;;;6.00;5.50;;;;;19.38;56.78;102023.84;5002888;28;45186;-77
2021/08/14 04:57:02;;;;;;;;;4.50;4.50;;;;;19.41;57.02;102031.69;5002546;28;46676;-77
2021/08/14 04:59:28;;;;;;;;;9.50;5.00;;;;;19.39;56.68;102030.88;5001786;28;45408;-78
2021/08/14 05:01:53;;;;;;;;;9.00;7.00;;;;;19.38;57.06;102032.72;5001476;28;45234;-78
2021/08/14 05:04:19;;;;;;;;;3.50;3.00;;;;;19.36;57.10;102025.72;4998476;28;45227;-78
2021/08/14 05:06:44;;;;;;;;;7.50;5.75;;;;;19.35;57.17;102027.53;5002495;28;46419;-78
2021/08/14 05:09:10;;;;;;;;;3.75;3.75;;;;;19.30;57.22;102027.75;5001945;28;45256;-78
2021/08/14 05:11:35;;;;;;;;;5.00;5.00;;;;;19.27;57.15;102027.91;4984100;28;45498;-78
2021/08/14 05:14:00;;;;;;;;;6.75;6.50;;;;;19.22;57.47;102021.94;5001759;28;45346;-78
2021/08/14 05:16:26;;;;;;;;;1.00;0.50;;;;;19.17;57.53;102027.50;4984172;28;47019;-80
2021/08/14 05:18:51;;;;;;;;;7.00;6.25;;;;;19.16;57.35;102023.06;4984455;28;45444;-79
2021/08/14 05:21:17;;;;;;;;;17.75;14.75;;;;;19.19;57.68;102027.41;4982115;28;45281;-79
2021/08/14 05:23:42;;;;;;;;;18.00;15.75;;;;;19.18;57.67;102036.34;4997912;28;45537;-79
2021/08/14 05:26:08;;;;;;;;;15.50;11.75;;;;;19.14;57.71;102038.25;4998585;28;46222;-77
2021/08/14 05:28:33;;;;;;;;;20.50;16.25;;;;;19.10;58.11;102040.22;4998975;28;45325;-78
2021/08/14 05:30:59;;;;;;;;;19.50;14.75;;;;;19.06;57.77;102038.63;5001840;28;45249;-77
2021/08/14 05:33:24;;;;;;;;;19.50;14.75;;;;;19.04;57.95;102035.19;5000935;28;45430;-78
2021/08/14 05:35:49;;;;;;;;;21.50;18.00;;;;;19.05;58.63;102042.25;5001845;28;45418;-78
2021/08/14 05:38:15;;;;;;;;;19.75;14.00;;;;;19.07;58.49;102042.16;5001213;28;45314;-79
2021/08/14 05:40:40;;;;;;;;;16.00;15.50;;;;;19.04;58.36;102032.50;5001903;28;45305;-79
2021/08/14 05:43:06;;;;;;;;;14.25;12.75;;;;;19.04;58.56;102029.84;4981345;28;45957;-79
2021/08/14 05:45:32;;;;;;;;;16.50;14.25;;;;;19.03;58.38;102033.47;5001314;28;45440;-79
2021/08/14 05:47:57;;;;;;;;;12.75;11.75;;;;;19.03;58.59;102040.59;4999289;28;45226;-78
2021/08/14 05:50:22;;;;;;;;;20.00;14.75;;;;;19.03;58.53;102037.94;4983613;28;45493;-80
2021/08/14 05:52:48;;;;;;;;;16.00;12.75;;;;;19.02;58.98;102045.06;4993194;28;45527;-79
2021/08/14 05:55:14;;;;;;;;;14.25;13.50;;;;;19.06;58.49;102043.97;5001430;28;45284;-78
2021/08/14 05:57:40;;;;;;;;;12.25;9.50;;;;;19.10;59.14;102045.56;5006002;28;45239;-78
2021/08/14 06:00:06;;;;;;;;;14.50;11.50;;;;;19.15;58.32;102047.13;4999527;28;45510;-79
2021/08/14 06:02:32;;;;;;;;;14.00;11.50;;;;;19.15;58.33;102053.31;4989905;28;45374;-79
2021/08/14 06:04:57;;;;;;;;;14.25;11.25;;;;;19.17;58.65;102055.91;4983635;28;45537;-79
2021/08/14 06:07:22;;;;;;;;;10.25;10.25;;;;;19.21;58.36;102053.03;5000792;28;45280;-78
2021/08/14 06:09:48;;;;;;;;;10.25;7.50;;;;;19.25;57.79;102050.22;5001433;28;45363;-78
2021/08/14 06:12:13;;;;;;;;;11.75;10.00;;;;;19.29;58.23;102058.00;5001778;28;45299;-79
2021/08/14 06:14:39;;;;;;;;;11.00;7.50;;;;;19.37;58.10;102056.75;5000922;28;46306;-79
2021/08/14 06:17:04;;;;;;;;;6.25;5.00;;;;;19.44;57.92;102053.72;5000958;28;45348;-78
2021/08/14 06:19:31;;;;;;;;;5.50;5.00;;;;;19.54;57.76;102063.91;4999753;28;45692;-78
2021/08/14 06:21:56;;;;;;;;;7.00;5.50;;;;;19.59;57.49;102053.00;5001349;28;45475;-78
2021/08/14 06:24:22;;;;;;;;;7.00;4.00;;;;;19.68;57.26;102056.06;4999214;28;45436;-79
2021/08/14 06:26:47;;;;;;;;;5.25;4.25;;;;;19.75;57.06;102055.78;5001288;28;45222;-81
2021/08/14 06:29:13;;;;;;;;;7.00;7.00;;;;;19.79;57.00;102055.53;5000505;28;45419;-82
2021/08/14 06:31:38;;;;;;;;;7.00;3.75;;;;;19.82;56.66;102064.31;4983322;28;46197;-82
2021/08/14 06:34:03;;;;;;;;;8.00;4.25;;;;;19.82;57.06;102061.66;4997299;28;46411;-81
2021/08/14 06:36:29;;;;;;;;;6.00;3.25;;;;;19.87;56.68;102064.94;4999265;28;45314;-81
2021/08/14 06:38:56;;;;;;;;;7.50;7.00;;;;;19.93;56.29;102069.09;4982986;28;45299;-80
2021/08/14 06:41:21;;;;;;;;;6.50;5.75;;;;;19.94;55.88;102069.03;4983096;28;46431;-80
2021/08/14 06:43:47;;;;;;;;;8.75;5.00;;;;;19.94;56.50;102071.69;4989463;28;45542;-80
2021/08/14 06:46:12;;;;;;;;;8.25;5.00;;;;;19.96;56.93;102061.78;4982862;28;45610;-79
2021/08/14 06:48:37;;;;;;;;;13.75;6.75;;;;;20.01;56.50;102062.41;5000801;28;45299;-80
2021/08/14 06:51:03;;;;;;;;;5.75;4.00;;;;;20.02;56.18;102058.81;4988994;28;45471;-80
2021/08/14 06:53:30;;;;;;;;;8.25;5.75;;;;;20.04;55.48;102068.53;4998189;28;45420;-79
2021/08/14 06:55:55;;;;;;;;;4.75;3.75;;;;;19.98;56.19;102057.22;4996715;28;45357;-78
2021/08/14 06:58:20;;;;;;;;;6.00;4.50;;;;;20.02;56.36;102061.50;4981459;28;45508;-79
2021/08/14 07:00:46;;;;;;;;;5.75;5.00;;;;;20.06;56.13;102063.97;5000318;28;45568;-78
2021/08/14 07:03:11;;;;;;;;;4.50;3.50;;;;;20.07;55.98;102071.03;4983027;28;48482;-78
2021/08/14 07:05:40;;;;;;;;;9.00;5.00;;;;;20.14;56.15;102064.47;5000032;28;46105;-78
2021/08/14 07:08:06;;;;;;;;;6.00;5.00;;;;;20.23;55.88;102065.78;4998395;28;45306;-78
2021/08/14 07:10:32;;;;;;;;;6.50;5.00;;;;;20.25;55.49;102069.22;5000534;28;45414;-78
2021/08/14 07:12:57;;;;;;;;;9.00;4.00;;;;;20.28;55.42;102060.19;4982706;28;48244;-79
2021/08/14 07:15:23;;;;;;;;;8.25;5.50;;;;;20.31;55.12;102058.22;4999565;28;45478;-78
2021/08/14 07:17:49;;;;;;;;;7.00;6.00;;;;;20.31;54.85;102052.91;4998120;28;45752;-76
2021/08/14 07:20:14;;;;;;;;;4.25;4.25;;;;;20.35;55.97;102064.25;5000408;28;45382;-76
2021/08/14 07:22:40;;;;;;;;;3.00;3.00;;;;;20.39;55.23;102052.50;4999338;28;45304;-79
2021/08/14 07:25:06;;;;;;;;;9.00;4.00;;;;;20.45;54.90;102057.47;4996541;28;45623;-79
2021/08/14 07:27:31;;;;;;;;;6.25;3.50;;;;;20.52;54.56;102059.84;4999245;28;45269;-79
2021/08/14 07:29:56;;;;;;;;;3.00;3.00;;;;;20.52;53.72;102060.66;4992353;28;45963;-79
2021/08/14 07:32:22;;;;;;;;;6.50;5.00;;;;;20.52;53.80;102057.16;4967177;28;48325;-79
2021/08/14 07:34:47;;;;;;;;;4.50;2.25;;;;;20.51;54.00;102056.28;4999446;28;45250;-80
2021/08/14 07:37:13;;;;;;;;;4.00;3.50;;;;;20.53;54.39;102049.06;5000529;28;45267;-79
2021/08/14 07:39:38;;;;;;;;;4.00;3.50;;;;;20.61;54.93;102050.44;4986650;28;45166;-79
2021/08/14 07:42:04;;;;;;;;;5.25;3.50;;;;;20.69;54.34;102046.38;4999995;28;46131;-79
2021/08/14 07:44:29;;;;;;;;;4.50;2.75;;;;;20.79;54.99;102045.91;4994418;28;45495;-80
2021/08/14 07:46:54;;;;;;;;;2.75;2.75;;;;;20.92;54.57;102054.06;4997491;28;45213;-80
2021/08/14 07:49:19;;;;;;;;;3.75;3.25;;;;;20.98;54.64;102035.03;4996042;28;45631;-79
2021/08/14 07:51:45;;;;;;;;;5.75;3.50;;;;;21.07;53.51;102040.81;4999003;28;45266;-79
2021/08/14 07:54:10;;;;;;;;;7.00;4.75;;;;;21.13;52.71;102040.47;4999048;28;46171;-79
2021/08/14 07:56:36;;;;;;;;;5.25;3.25;;;;;21.16;52.63;102039.44;4998576;28;45297;-79
2021/08/14 07:59:01;;;;;;;;;4.00;3.50;;;;;21.21;52.79;102034.69;4999798;28;45459;-80
2021/08/14 08:01:26;;;;;;;;;4.00;4.00;;;;;21.26;51.53;102043.28;4998672;28;45465;-79
2021/08/14 08:03:52;;;;;;;;;4.00;4.00;;;;;21.30;53.09;102033.28;4976049;28;45790;-78
2021/08/14 08:06:18;;;;;;;;;6.50;4.00;;;;;21.35;52.10;102025.84;4990417;28;45334;-75
2021/08/14 08:08:43;;;;;;;;;4.75;4.00;;;;;21.42;51.15;102031.69;4993951;28;45400;-75
2021/08/14 08:11:09;;;;;;;;;4.50;4.50;;;;;21.46;52.06;102026.06;4992256;28;48526;-75
2021/08/14 08:13:34;;;;;;;;;5.75;3.50;;;;;21.54;50.54;102024.75;4982980;28;45247;-75
2021/08/14 08:15:59;;;;;;;;;3.00;3.00;;;;;21.58;51.28;102032.50;4988802;28;45518;-75
2021/08/14 08:18:25;;;;;;;;;5.00;5.00;;;;;21.64;51.11;102027.72;4984059;28;45328;-75
2021/08/14 08:20:50;;;;;;;;;8.25;4.50;;;;;21.69;51.35;102022.97;4991269;28;46030;-75
2021/08/14 08:23:16;;;;;;;;;7.00;4.50;;;;;21.75;50.48;102029.78;4981026;28;45231;-75
2021/08/14 08:25:42;;;;;;;;;6.50;6.00;;;;;21.78;50.44;102024.25;4992496;28;45237;-74
2021/08/14 08:28:08;;;;;;;;;6.50;6.00;;;;;21.80;49.41;102023.16;4999116;28;45496;-74
2021/08/14 08:30:33;;;;;;;;;10.75;5.25;;;;;21.84;48.83;102021.19;5005766;28;46161;-74
2021/08/14 08:32:59;;;;;;;;;7.00;4.75;;;;;21.88;49.16;102021.88;5001770;28;45209;-74
2021/08/14 08:35:24;;;;;;;;;8.00;5.00;;;;;21.91;49.00;102019.88;4999562;28;45464;-74
2021/08/14 08:37:50;;;;;;;;;6.25;5.00;;;;;21.97;48.92;102020.47;4994271;28;45736;-74
2021/08/14 08:40:17;;;;;;;;;6.00;4.00;;;;;22.00;48.50;102017.59;4999204;28;45285;-74
2021/08/14 08:42:45;;;;;;;;;6.50;5.00;;;;;22.05;49.19;102020.00;4999280;28;45331;-75
2021/08/14 08:45:12;;;;;;;;;10.00;6.50;;;;;22.08;48.61;102015.28;4998901;28;45238;-75
2021/08/14 08:47:40;;;;;;;;;4.00;4.00;;;;;22.14;47.80;102016.72;4998215;28;45662;-74
2021/08/14 08:50:07;;;;;;;;;8.75;5.25;;;;;22.17;47.37;102013.00;4999132;28;45424;-75
2021/08/14 08:52:33;;;;;;;;;7.25;7.25;;;;;22.20;47.65;102015.50;4999127;28;45544;-75
2021/08/14 08:54:58;;;;;;;;;8.00;4.00;;;;;22.26;45.64;102015.09;4999092;28;45356;-74
2021/08/14 08:57:24;;;;;;;;;6.50;5.00;;;;;22.29;46.41;102014.91;4987765;28;45341;-75
2021/08/14 08:59:50;;;;;;;;;7.25;4.25;;;;;22.33;46.46;102012.88;4980342;28;48531;-75
2021/08/14 09:02:24;;;;;;;;;6.50;3.00;;;;;22.38;46.91;102002.75;4996186;28;45222;-75
2021/08/14 09:05:17;;;;;;;;;4.00;4.00;;;;;22.42;46.43;102006.94;4980678;28;45337;-75
2021/08/14 09:07:46;;;;;;;;;6.50;5.25;;;;;22.44;44.60;102006.88;4986778;28;45379;-75
2021/08/14 09:10:14;;;;;;;;;7.25;5.50;;;;;22.45;45.23;102011.25;4999253;28;45436;-75
2021/08/14 09:12:42;;;;;;;;;6.00;4.75;;;;;22.47;45.19;101994.13;4997187;28;45536;-74
2021/08/14 09:15:17;;;;;;;;;6.00;5.00;;;;;22.51;45.57;101991.25;5000498;28;45413;-75
2021/08/14 09:17:45;;;;;;;;;4.50;3.00;;;;;22.56;45.35;101994.50;4998903;28;45595;-75
2021/08/14 09:20:14;;;;;;;;;8.00;4.75;;;;;22.62;45.79;101998.59;4999577;28;45545;-75
2021/08/14 09:22:42;;;;;;;;;5.75;5.50;;;;;22.68;45.16;101999.06;4995792;28;45694;-75
2021/08/14 09:25:19;;;;;;;;;7.00;4.00;;;;;22.74;46.09;101992.47;4998250;28;45400;-75
2021/08/14 09:27:49;;;;;;;;;4.25;2.50;;;;;22.78;44.82;101988.63;4997841;28;46089;-75
2021/08/14 09:30:14;;;;;;;;;6.50;6.00;;;;;22.81;45.15;101992.94;5000162;28;45692;-74
2021/08/14 09:32:39;;;;;;;;;5.75;4.25;;;;;22.84;46.07;101992.69;4998708;28;45459;-74
2021/08/14 09:35:06;;;;;;;;;6.25;6.00;;;;;22.88;45.10;101991.56;4999660;28;45498;-74
2021/08/14 09:37:37;;;;;;;;;10.25;5.00;;;;;22.93;45.64;101989.44;4993368;28;45498;-73
2021/08/14 09:40:02;;;;;;;;;5.75;4.75;;;;;22.96;44.53;101984.84;4999367;28;45424;-74
2021/08/14 09:42:29;;;;;;;;;5.50;5.25;;;;;23.03;44.88;101976.28;4986391;28;45491;-74
2021/08/14 09:45:16;;;;;;;;;7.00;6.25;;;;;23.10;45.22;101974.03;5001473;28;45217;-74
2021/08/14 09:47:43;;;;;;;;;6.50;4.00;;;;;23.17;44.89;101977.16;4994385;28;45468;-74
2021/08/14 09:50:09;;;;;;;;;6.25;4.25;;;;;23.19;45.04;101977.06;5001247;28;46234;-74
2021/08/14 09:52:35;;;;;;;;;7.00;5.00;;;;;23.24;44.69;101977.59;4991961;28;45535;-74
2021/08/14 09:55:00;;;;;;;;;6.50;6.00;;;;;23.28;44.22;101976.44;4984288;28;45321;-74
2021/08/14 09:57:25;;;;;;;;;4.75;4.50;;;;;23.32;42.66;101971.72;5000154;28;45321;-74
2021/08/14 09:59:52;;;;;;;;;6.25;4.00;;;;;23.37;43.36;101974.94;4976406;28;47163;-74
2021/08/14 10:02:25;;;;;;;;;5.50;4.00;;;;;23.42;44.68;101969.25;5000784;28;45430;-74
2021/08/14 10:04:52;;;;;;;;;5.75;4.75;;;;;23.43;44.00;101968.31;5001347;28;45249;-74
2021/08/14 10:07:18;;;;;;;;;5.50;4.25;;;;;23.43;44.29;101971.84;4999156;28;46110;-74
2021/08/14 10:09:45;;;;;;;;;5.50;5.50;;;;;23.47;43.89;101967.13;5002257;28;46544;-74
2021/08/14 10:12:12;;;;;;;;;9.00;5.50;;;;;23.54;44.88;101975.63;4994465;28;45349;-74
2021/08/14 10:14:42;;;;;;;;;10.00;4.50;;;;;23.51;43.77;101965.97;4993220;28;45369;-74
2021/08/14 10:17:09;;;;;;;;;6.25;4.50;;;;;23.53;43.61;101958.69;4983199;28;46403;-74
2021/08/14 10:19:35;;;;;;;;;8.00;5.00;;;;;23.63;44.38;101960.72;4999930;28;45436;-74
2021/08/14 10:22:02;;;;;;;;;7.00;7.00;;;;;23.67;43.02;101959.53;5000253;28;45269;-74
2021/08/14 10:24:38;;;;;;;;;4.75;4.25;;;;;23.76;41.30;101968.75;4999288;28;45410;-74
2021/08/14 10:27:04;;;;;;;;;9.25;5.25;;;;;23.83;41.26;101962.84;5001502;28;45470;-74
2021/08/14 10:29:53;;;;;;;;;6.25;4.00;;;;;23.97;41.82;101960.16;4976265;28;48277;-74
2021/08/14 10:32:38;;;;;;;;;9.25;6.00;;;;;24.05;40.95;101947.91;5000578;28;45467;-74
2021/08/14 10:35:12;;;;;;;;;5.00;5.00;;;;;24.13;41.62;101947.34;5000631;28;45337;-74
2021/08/14 10:37:42;;;;;;;;;8.75;5.75;;;;;24.19;41.46;101945.19;4972875;28;46095;-74
2021/08/14 10:40:09;;;;;;;;;6.25;5.25;;;;;24.24;41.82;101937.66;4997342;28;46367;-74
2021/08/14 10:42:53;;;;;;;;;7.75;5.75;;;;;24.31;41.70;101938.09;4987648;28;45410;-74
2021/08/14 10:45:19;;;;;;;;;6.00;4.00;;;;;24.37;41.59;101921.53;4984476;28;45325;-74
2021/08/14 10:47:47;;;;;;;;;8.00;5.00;;;;;24.42;41.76;101923.88;4982643;28;46190;-74
2021/08/14 10:50:33;;;;;;;;;6.00;5.00;;;;;24.46;40.85;101928.03;4992333;28;46381;-74
2021/08/14 10:53:10;;;;;;;;;7.25;4.00;;;;;24.53;42.69;101928.44;4995505;28;45658;-74
2021/08/14 10:55:43;;;;;;;;;6.00;6.00;;;;;24.50;42.34;101921.47;5001137;28;45535;-74
2021/08/14 10:58:22;;;;;;;;;6.00;5.25;;;;;24.51;42.89;101925.88;4996505;28;45530;-73
2021/08/14 11:00:50;;;;;;;;;4.75;4.00;;;;;24.46;42.50;101920.84;4996640;28;45491;-74
2021/08/14 11:03:19;;;;;;;;;4.50;4.25;;;;;24.47;41.85;101922.53;5000144;28;45591;-74
2021/08/14 11:05:48;;;;;;;;;9.50;5.75;;;;;24.56;41.58;101922.84;5000848;28;45429;-74
2021/08/14 11:08:28;;;;;;;;;6.00;4.75;;;;;24.65;41.58;101918.59;4990711;28;45551;-74
2021/08/14 11:10:54;;;;;;;;;10.00;6.00;;;;;24.68;42.44;101915.69;4997505;28;45404;-74
2021/08/14 11:13:31;;;;;;;;;7.75;6.50;;;;;24.72;41.53;101909.97;4999569;28;45226;-74
2021/08/14 11:15:58;;;;;;;;;7.75;6.25;;;;;24.77;41.55;101903.41;5000346;28;45389;-74
2021/08/14 11:18:49;;;;;;;;;6.50;6.50;;;;;24.85;41.80;101903.66;4996502;28;45519;-74
2021/08/14 11:21:14;;;;;;;;;6.50;5.50;;;;;24.89;42.67;101899.75;4995662;28;46379;-74